createdAt,value
2017-08-26T04:43:16.563Z,58.66
2017-08-26T04:44:16.557Z,58.47
2017-08-26T04:45:16.450Z,58.47
2017-08-26T04:46:16.443Z,58.56
2017-08-26T04:47:16.438Z,58.56
2017-08-26T04:48:16.429Z,58.56
2017-08-26T04:49:16.425Z,58.47
2017-08-26T04:50:16.520Z,58.66
2017-08-26T04:51:16.410Z,58.66
2017-08-26T04:52:16.404Z,58.66
2017-08-26T04:53:16.399Z,58.86
2017-08-26T04:54:16.398Z,58.86
2017-08-26T04:55:16.395Z,58.66
2017-08-26T04:56:16.481Z,58.76
2017-08-26T04:57:16.373Z,59.72
2017-08-26T04:58:16.368Z,59.81
2017-08-26T04:59:16.362Z,60.00
2017-08-26T05:00:16.355Z,59.81
2017-08-26T05:01:16.349Z,59.52
2017-08-26T05:02:16.443Z,60.00
2017-08-26T05:03:16.336Z,60.00
2017-08-26T05:04:16.331Z,60.10
2017-08-26T05:05:16.324Z,59.81
2017-08-26T05:06:16.320Z,59.81
2017-08-26T05:07:16.312Z,59.91
2017-08-26T05:08:16.405Z,59.81
2017-08-26T05:09:16.298Z,60.00
2017-08-26T05:10:16.293Z,59.81
2017-08-26T05:11:16.285Z,59.81
2017-08-26T05:12:16.279Z,59.72
2017-08-26T05:13:16.274Z,59.62
2017-08-26T05:14:16.368Z,60.00
2017-08-26T05:15:16.262Z,59.65
2017-08-26T05:16:16.253Z,59.84
2017-08-26T05:17:16.248Z,59.94
2017-08-26T05:18:16.242Z,60.03
2017-08-26T05:19:16.238Z,60.13
2017-08-26T05:20:16.329Z,60.13
2017-08-26T05:21:16.223Z,60.32
2017-08-26T05:22:16.218Z,59.94
2017-08-26T05:23:16.212Z,59.94
2017-08-26T05:24:16.305Z,59.84
2017-08-26T05:25:16.199Z,60.32
2017-08-26T05:26:16.193Z,59.84
2017-08-26T05:27:16.288Z,59.84
2017-08-26T05:28:16.182Z,59.84
2017-08-26T05:29:16.178Z,59.65
2017-08-26T05:30:16.171Z,59.94
2017-08-26T05:31:16.163Z,60.03
2017-08-26T05:32:16.156Z,60.25
2017-08-26T05:33:16.251Z,59.97
2017-08-26T05:34:16.146Z,60.06
2017-08-26T05:35:16.140Z,60.35
2017-08-26T05:36:16.133Z,60.44
2017-08-26T05:37:16.127Z,60.64
2017-08-26T05:38:16.123Z,60.73
2017-08-26T05:39:16.217Z,60.93
2017-08-26T05:40:16.112Z,62.10
2017-08-26T05:41:16.106Z,58.84
2017-08-26T05:42:16.099Z,58.27
2017-08-26T05:43:16.094Z,58.75
2017-08-26T05:44:16.087Z,58.27
2017-08-26T05:45:16.184Z,57.15
2017-08-26T05:46:16.087Z,57.72
2017-08-26T05:47:16.173Z,57.43
2017-08-26T05:48:16.066Z,57.53
2017-08-26T05:49:16.061Z,57.72
2017-08-26T05:50:16.055Z,57.43
2017-08-26T05:51:16.150Z,58.01
2017-08-26T05:52:16.045Z,58.78
2017-08-26T05:53:16.039Z,58.78
2017-08-26T05:54:16.034Z,59.55
2017-08-26T05:55:16.030Z,58.91
2017-08-26T05:56:16.024Z,58.91
2017-08-26T05:57:16.319Z,56.12
2017-08-26T05:58:16.014Z,53.34
2017-08-26T05:59:16.010Z,53.24
2017-08-26T06:00:16.004Z,53.05
2017-08-26T06:01:15.999Z,53.08
2017-08-26T06:02:15.994Z,53.08
2017-08-26T06:03:16.089Z,52.89
2017-08-26T06:04:15.984Z,54.04
2017-08-26T06:05:15.980Z,54.80
2017-08-26T06:06:15.975Z,54.93
2017-08-26T06:07:15.971Z,57.52
2017-08-26T06:08:15.966Z,55.02
2017-08-26T06:09:16.062Z,52.75
2017-08-26T06:10:15.960Z,52.91
2017-08-26T06:11:16.086Z,51.31
2017-08-26T06:12:15.948Z,50.92
2017-08-26T06:13:15.945Z,51.98
2017-08-26T06:14:15.940Z,52.36
2017-08-26T06:15:16.036Z,53.80
2017-08-26T06:16:15.931Z,53.03
2017-08-26T06:17:15.932Z,52.94
2017-08-26T06:18:15.922Z,53.23
2017-08-26T06:19:15.920Z,53.06
2017-08-26T06:20:15.915Z,52.48
2017-08-26T06:21:16.014Z,51.62
2017-08-26T06:22:15.908Z,50.46
2017-08-26T06:23:15.903Z,50.95
2017-08-26T06:24:15.905Z,51.93
2017-08-26T06:25:15.898Z,51.53
2017-08-26T06:26:15.893Z,51.35
2017-08-26T06:27:15.990Z,51.26
2017-08-26T06:28:15.886Z,51.07
2017-08-26T06:29:15.883Z,50.40
2017-08-26T06:30:15.879Z,50.01
2017-08-26T06:31:15.875Z,49.84
2017-08-26T06:32:15.871Z,48.88
2017-08-26T06:33:16.174Z,48.59
2017-08-26T06:34:15.880Z,47.82
2017-08-26T06:35:15.861Z,45.83
2017-08-26T06:36:15.857Z,46.04
2017-08-26T06:37:15.855Z,44.69
2017-08-26T06:38:15.855Z,41.51
2017-08-26T06:39:15.949Z,42.49
2017-08-26T06:40:15.844Z,42.52
2017-08-26T06:41:15.843Z,40.51
2017-08-26T06:42:15.939Z,39.59
2017-08-26T06:43:15.836Z,37.58
2017-08-26T06:44:15.832Z,35.57
2017-08-26T06:45:15.930Z,33.75
2017-08-26T06:46:15.828Z,31.71
2017-08-26T06:47:15.825Z,32.29
2017-08-26T06:48:15.822Z,33.45
2017-08-26T06:49:15.820Z,33.83
2017-08-26T06:50:15.819Z,35.28
2017-08-26T06:51:16.117Z,36.32
2017-08-26T06:52:15.814Z,36.69
2017-08-26T06:53:15.813Z,37.46
2017-08-26T06:54:15.811Z,37.75
2017-08-26T06:55:15.910Z,38.71
2017-08-26T06:56:15.808Z,37.35
2017-08-26T06:57:16.056Z,37.63
2017-08-26T06:58:15.805Z,39.06
2017-08-26T06:59:15.803Z,39.45
2017-08-26T07:00:15.799Z,38.66
2017-08-26T07:01:15.798Z,37.10
2017-08-26T07:02:15.798Z,39.78
2017-08-26T07:03:15.893Z,40.84
2017-08-26T07:04:15.792Z,41.68
2017-08-26T07:05:15.789Z,41.18
2017-08-26T07:06:15.788Z,40.99
2017-08-26T07:07:15.788Z,42.12
2017-08-26T07:08:15.784Z,42.70
2017-08-26T07:09:15.881Z,43.57
2017-08-26T07:10:15.779Z,44.62
2017-08-26T07:11:15.778Z,44.34
2017-08-26T07:12:15.775Z,45.87
2017-08-26T07:13:15.771Z,45.97
2017-08-26T07:14:15.770Z,44.82
2017-08-26T07:15:15.867Z,45.39
2017-08-26T07:16:15.865Z,46.45
2017-08-26T07:17:15.763Z,46.74
2017-08-26T07:18:15.760Z,47.51
2017-08-26T07:19:15.758Z,47.61
2017-08-26T07:20:15.755Z,46.47
2017-08-26T07:21:15.854Z,46.98
2017-08-26T07:22:15.753Z,46.04
2017-08-26T07:23:15.754Z,44.40
2017-08-26T07:24:15.751Z,43.85
2017-08-26T07:25:15.753Z,44.71
2017-08-26T07:26:15.754Z,43.58
2017-08-26T07:27:15.856Z,43.41
2017-08-26T07:28:15.853Z,43.31
2017-08-26T07:29:15.758Z,44.87
2017-08-26T07:30:15.760Z,43.91
2017-08-26T07:31:15.763Z,43.81
2017-08-26T07:32:15.920Z,43.81
2017-08-26T07:33:15.870Z,43.72
2017-08-26T07:34:15.774Z,43.81
2017-08-26T07:35:15.779Z,45.34
2017-08-26T07:36:15.781Z,43.70
2017-08-26T07:37:15.786Z,43.60
2017-08-26T07:38:15.790Z,44.06
2017-08-26T07:39:15.896Z,43.67
2017-08-26T07:40:15.799Z,44.83
2017-08-26T07:41:15.805Z,44.25
2017-08-26T07:42:15.808Z,45.41
2017-08-26T07:43:15.812Z,46.08
2017-08-26T07:44:15.813Z,43.77
2017-08-26T07:45:15.921Z,45.41
2017-08-26T07:46:15.822Z,46.97
2017-08-26T07:47:15.826Z,46.88
2017-08-26T07:48:15.830Z,45.92
2017-08-26T07:49:15.831Z,47.36
2017-08-26T07:50:15.933Z,47.45
2017-08-26T07:51:15.936Z,45.43
2017-08-26T07:52:15.841Z,45.21
2017-08-26T07:53:15.842Z,45.12
2017-08-26T07:54:15.879Z,43.10
2017-08-26T07:55:15.849Z,42.90
2017-08-26T07:56:15.850Z,44.15
2017-08-26T07:57:15.951Z,43.29
2017-08-26T07:58:15.853Z,42.80
2017-08-26T07:59:15.855Z,43.67
2017-08-26T08:00:15.857Z,42.23
2017-08-26T08:01:15.959Z,41.65
2017-08-26T08:02:15.983Z,41.84
2017-08-26T08:03:15.964Z,42.32
2017-08-26T08:04:15.961Z,43.67
2017-08-26T08:05:15.963Z,42.61
2017-08-26T08:06:15.865Z,43.58
2017-08-26T08:07:15.922Z,42.73
2017-08-26T08:08:15.865Z,42.13
2017-08-26T08:09:15.867Z,42.32
2017-08-26T08:10:15.968Z,41.17
2017-08-26T08:11:15.869Z,40.88
2017-08-26T08:12:15.869Z,41.36
2017-08-26T08:13:15.970Z,43.65
2017-08-26T08:14:15.870Z,44.81
2017-08-26T08:15:15.876Z,44.13
2017-08-26T08:16:15.971Z,45.29
2017-08-26T08:17:15.871Z,46.83
2017-08-26T08:18:15.941Z,46.15
2017-08-26T08:19:15.872Z,46.25
2017-08-26T08:20:15.869Z,46.06
2017-08-26T08:21:15.869Z,46.06
2017-08-26T08:22:15.973Z,46.23
2017-08-26T08:23:15.871Z,45.36
2017-08-26T08:24:15.867Z,45.46
2017-08-26T08:25:15.868Z,45.94
2017-08-26T08:26:15.868Z,46.62
2017-08-26T08:27:15.866Z,45.36
2017-08-26T08:28:15.964Z,45.17
2017-08-26T08:29:15.866Z,45.17
2017-08-26T08:30:15.865Z,46.62
2017-08-26T08:31:15.865Z,46.64
2017-08-26T08:32:15.863Z,47.80
2017-08-26T08:33:15.962Z,46.64
2017-08-26T08:34:15.961Z,47.12
2017-08-26T08:35:15.861Z,47.89
2017-08-26T08:36:15.861Z,46.06
2017-08-26T08:37:15.860Z,45.39
2017-08-26T08:38:15.857Z,45.20
2017-08-26T08:39:15.957Z,44.90
2017-08-26T08:40:15.954Z,45.29
2017-08-26T08:41:15.857Z,47.41
2017-08-26T08:42:15.852Z,44.42
2017-08-26T08:43:15.851Z,42.97
2017-08-26T08:44:15.850Z,43.75
2017-08-26T08:45:15.850Z,44.25
2017-08-26T08:46:15.950Z,44.25
2017-08-26T08:47:15.984Z,44.93
2017-08-26T08:48:15.846Z,45.41
2017-08-26T08:49:15.845Z,45.12
2017-08-26T08:50:15.844Z,46.28
2017-08-26T08:51:15.843Z,45.99
2017-08-26T08:52:15.941Z,46.35
2017-08-26T08:53:15.841Z,45.79
2017-08-26T08:54:15.839Z,46.76
2017-08-26T08:55:15.838Z,47.14
2017-08-26T08:56:15.851Z,44.85
2017-08-26T08:57:15.837Z,47.17
2017-08-26T08:58:15.938Z,43.12
2017-08-26T08:59:15.835Z,41.88
2017-08-26T09:00:15.833Z,43.81
2017-08-26T09:01:15.832Z,43.43
2017-08-26T09:02:15.832Z,42.36
2017-08-26T09:03:15.831Z,39.28
2017-08-26T09:04:15.931Z,43.24
2017-08-26T09:05:15.839Z,41.33
2017-08-26T09:06:15.928Z,41.33
2017-08-26T09:07:15.829Z,41.52
2017-08-26T09:08:15.826Z,44.22
2017-08-26T09:09:15.826Z,41.25
2017-08-26T09:10:15.926Z,39.22
2017-08-26T09:11:15.825Z,38.66
2017-08-26T09:12:15.828Z,38.64
2017-08-26T09:13:15.825Z,37.50
2017-08-26T09:14:15.825Z,37.88
2017-08-26T09:15:15.825Z,37.52
2017-08-26T09:16:15.923Z,38.48
2017-08-26T09:17:15.824Z,36.07
2017-08-26T09:18:15.827Z,35.39
2017-08-26T09:19:15.824Z,36.16
2017-08-26T09:20:15.823Z,38.70
2017-08-26T09:21:15.823Z,36.94
2017-08-26T09:22:15.926Z,37.52
2017-08-26T09:23:15.824Z,39.26
2017-08-26T09:24:15.824Z,40.32
2017-08-26T09:25:15.824Z,38.87
2017-08-26T09:26:15.827Z,37.52
2017-08-26T09:27:15.825Z,37.32
2017-08-26T09:28:15.932Z,39.16
2017-08-26T09:29:15.826Z,38.87
2017-08-26T09:30:15.825Z,41.87
2017-08-26T09:31:15.827Z,38.00
2017-08-26T09:32:15.925Z,36.36
2017-08-26T09:33:15.825Z,36.94
2017-08-26T09:34:15.926Z,36.65
2017-08-26T09:35:15.827Z,37.52
2017-08-26T09:36:15.827Z,37.98
2017-08-26T09:37:15.826Z,38.00
2017-08-26T09:38:15.827Z,38.48
2017-08-26T09:39:15.827Z,37.04
2017-08-26T09:40:15.925Z,37.62
2017-08-26T09:41:15.825Z,37.32
2017-08-26T09:42:15.928Z,37.52
2017-08-26T09:43:15.841Z,36.18
2017-08-26T09:44:15.827Z,36.28
2017-08-26T09:45:15.826Z,34.92
2017-08-26T09:46:15.929Z,36.66
2017-08-26T09:47:15.828Z,36.47
2017-08-26T09:48:15.928Z,35.50
2017-08-26T09:49:15.828Z,36.74
2017-08-26T09:50:15.829Z,36.55
2017-08-26T09:51:15.832Z,37.71
2017-08-26T09:52:15.930Z,37.32
2017-08-26T09:53:15.830Z,38.70
2017-08-26T09:54:15.831Z,37.82
2017-08-26T09:55:15.832Z,40.44
2017-08-26T09:56:15.829Z,39.67
2017-08-26T09:57:15.833Z,38.23
2017-08-26T09:58:15.933Z,38.91
2017-08-26T09:59:15.932Z,38.62
2017-08-26T10:00:15.832Z,39.97
2017-08-26T10:01:15.833Z,40.19
2017-08-26T10:02:15.834Z,39.12
2017-08-26T10:03:15.835Z,38.56
2017-08-26T10:04:15.833Z,35.28
2017-08-26T10:05:15.940Z,34.22
2017-08-26T10:06:15.835Z,33.25
2017-08-26T10:07:15.837Z,32.56
2017-08-26T10:08:15.837Z,32.46
2017-08-26T10:09:15.838Z,34.38
2017-08-26T10:10:15.840Z,36.51
2017-08-26T10:11:15.941Z,36.14
2017-08-26T10:12:15.870Z,37.40
2017-08-26T10:13:15.842Z,36.43
2017-08-26T10:14:15.843Z,36.24
2017-08-26T10:15:15.846Z,37.51
2017-08-26T10:16:15.845Z,35.77
2017-08-26T10:17:15.946Z,34.51
2017-08-26T10:18:15.949Z,35.48
2017-08-26T10:19:15.860Z,33.06
2017-08-26T10:20:16.050Z,34.99
2017-08-26T10:21:15.851Z,34.51
2017-08-26T10:22:15.853Z,33.06
2017-08-26T10:23:15.853Z,35.57
2017-08-26T10:24:16.110Z,37.13
2017-08-26T10:25:15.855Z,35.38
2017-08-26T10:26:15.857Z,34.41
2017-08-26T10:27:15.859Z,38.58
2017-08-26T10:28:15.859Z,34.70
2017-08-26T10:29:15.861Z,36.64
2017-08-26T10:30:15.962Z,34.51
2017-08-26T10:31:15.864Z,32.75
2017-08-26T10:32:15.866Z,34.97
2017-08-26T10:33:15.867Z,35.35
2017-08-26T10:34:15.866Z,36.82
2017-08-26T10:35:15.869Z,35.64
2017-08-26T10:36:15.970Z,36.32
2017-08-26T10:37:15.873Z,36.82
2017-08-26T10:38:15.873Z,35.83
2017-08-26T10:39:15.875Z,38.54
2017-08-26T10:40:15.876Z,35.66
2017-08-26T10:41:15.875Z,37.01
2017-08-26T10:42:15.980Z,37.49
2017-08-26T10:43:15.880Z,38.19
2017-08-26T10:44:15.882Z,34.99
2017-08-26T10:45:15.886Z,33.84
2017-08-26T10:46:15.885Z,34.53
2017-08-26T10:47:15.887Z,33.94
2017-08-26T10:48:15.990Z,34.43
2017-08-26T10:49:15.889Z,34.33
2017-08-26T10:50:15.892Z,32.86
2017-08-26T10:51:15.893Z,29.66
2017-08-26T10:52:15.893Z,29.47
2017-08-26T10:53:15.895Z,33.81
2017-08-26T10:54:16.002Z,34.30
2017-08-26T10:55:15.898Z,32.65
2017-08-26T10:56:15.906Z,30.62
2017-08-26T10:57:15.903Z,31.97
2017-08-26T10:58:15.903Z,31.78
2017-08-26T10:59:16.043Z,31.20
2017-08-26T11:00:16.006Z,31.89
2017-08-26T11:01:15.907Z,32.67
2017-08-26T11:02:15.965Z,32.09
2017-08-26T11:03:15.913Z,33.34
2017-08-26T11:04:15.912Z,31.99
2017-08-26T11:05:15.913Z,33.54
2017-08-26T11:06:16.217Z,30.92
2017-08-26T11:07:15.918Z,31.41
2017-08-26T11:08:15.919Z,32.65
2017-08-26T11:09:16.022Z,31.29
2017-08-26T11:10:15.924Z,32.46
2017-08-26T11:11:15.923Z,29.55
2017-08-26T11:12:16.026Z,32.36
2017-08-26T11:13:15.926Z,33.34
2017-08-26T11:14:15.929Z,33.06
2017-08-26T11:15:15.931Z,32.09
2017-08-26T11:16:15.931Z,32.57
2017-08-26T11:17:15.933Z,31.79
2017-08-26T11:18:16.035Z,33.94
2017-08-26T11:19:15.936Z,35.59
2017-08-26T11:20:15.937Z,32.87
2017-08-26T11:21:15.942Z,32.99
2017-08-26T11:22:15.940Z,32.79
2017-08-26T11:23:15.944Z,31.24
2017-08-26T11:24:16.043Z,31.34
2017-08-26T11:25:15.947Z,32.31
2017-08-26T11:26:15.948Z,30.27
2017-08-26T11:27:15.954Z,31.53
2017-08-26T11:28:15.952Z,30.26
2017-08-26T11:29:15.954Z,32.00
2017-08-26T11:30:16.054Z,33.75
2017-08-26T11:31:15.959Z,32.87
2017-08-26T11:32:15.960Z,34.81
2017-08-26T11:33:15.963Z,36.36
2017-08-26T11:34:15.963Z,37.05
2017-08-26T11:35:15.965Z,36.56
2017-08-26T11:36:16.066Z,34.91
2017-08-26T11:37:15.981Z,33.57
2017-08-26T11:38:15.971Z,34.83
2017-08-26T11:39:15.972Z,35.32
2017-08-26T11:40:15.974Z,35.24
2017-08-26T11:41:15.975Z,35.53
2017-08-26T11:42:16.076Z,37.18
2017-08-26T11:43:15.980Z,35.92
2017-08-26T11:44:15.981Z,34.46
2017-08-26T11:45:15.983Z,33.98
2017-08-26T11:46:15.984Z,34.66
2017-08-26T11:47:15.988Z,35.43
2017-08-26T11:48:16.087Z,34.75
2017-08-26T11:49:15.990Z,35.72
2017-08-26T11:50:15.993Z,35.72
2017-08-26T11:51:15.995Z,33.51
2017-08-26T11:52:16.000Z,38.65
2017-08-26T11:53:15.999Z,36.91
2017-08-26T11:54:16.301Z,35.96
2017-08-26T11:55:16.004Z,36.93
2017-08-26T11:56:16.005Z,33.14
2017-08-26T11:57:16.009Z,32.84
2017-08-26T11:58:16.011Z,35.74
2017-08-26T11:59:16.010Z,33.22
2017-08-26T12:00:16.112Z,34.66
2017-08-26T12:01:16.014Z,34.25
2017-08-26T12:02:16.018Z,35.80
2017-08-26T12:03:16.021Z,35.32
2017-08-26T12:04:16.023Z,35.90
2017-08-26T12:05:16.025Z,34.64
2017-08-26T12:06:16.128Z,33.94
2017-08-26T12:07:16.035Z,35.59
2017-08-26T12:08:16.031Z,35.21
2017-08-26T12:09:16.033Z,34.91
2017-08-26T12:10:16.042Z,34.51
2017-08-26T12:11:16.039Z,36.74
2017-08-26T12:12:16.137Z,34.51
2017-08-26T12:13:16.041Z,33.14
2017-08-26T12:14:16.042Z,33.91
2017-08-26T12:15:16.045Z,33.52
2017-08-26T12:16:16.045Z,33.72
2017-08-26T12:17:16.047Z,36.06
2017-08-26T12:18:16.150Z,36.25
2017-08-26T12:19:16.051Z,33.64
2017-08-26T12:20:16.051Z,35.38
2017-08-26T12:21:16.052Z,35.77
2017-08-26T12:22:16.057Z,35.48
2017-08-26T12:23:16.057Z,36.27
2017-08-26T12:24:16.159Z,33.56
2017-08-26T12:25:16.061Z,31.91
2017-08-26T12:26:16.067Z,32.97
2017-08-26T12:27:16.063Z,33.75
2017-08-26T12:28:16.065Z,33.26
2017-08-26T12:29:16.066Z,32.89
2017-08-26T12:30:16.167Z,31.73
2017-08-26T12:31:16.173Z,30.48
2017-08-26T12:32:16.070Z,28.04
2017-08-26T12:33:16.073Z,29.88
2017-08-26T12:34:16.075Z,28.23
2017-08-26T12:35:16.077Z,30.85
2017-08-26T12:36:16.078Z,30.84
2017-08-26T12:37:16.178Z,30.55
2017-08-26T12:38:16.084Z,30.26
2017-08-26T12:39:16.084Z,31.04
2017-08-26T12:40:16.085Z,29.87
2017-08-26T12:41:16.086Z,30.16
2017-08-26T12:42:16.088Z,32.68
2017-08-26T12:43:16.192Z,31.42
2017-08-26T12:44:16.093Z,32.29
2017-08-26T12:45:16.131Z,32.00
2017-08-26T12:46:16.094Z,30.74
2017-08-26T12:47:16.098Z,32.10
2017-08-26T12:48:16.108Z,31.62
2017-08-26T12:49:16.200Z,31.81
2017-08-26T12:50:16.101Z,32.10
2017-08-26T12:51:16.104Z,32.29
2017-08-26T12:52:16.105Z,33.83
2017-08-26T12:53:16.104Z,33.92
2017-08-26T12:54:16.109Z,35.88
2017-08-26T12:55:16.359Z,36.27
2017-08-26T12:56:16.110Z,33.56
2017-08-26T12:57:16.112Z,32.87
2017-08-26T12:58:16.112Z,35.88
2017-08-26T12:59:16.114Z,36.46
2017-08-26T13:00:16.116Z,37.53
2017-08-26T13:01:16.218Z,34.81
2017-08-26T13:02:16.120Z,36.85
2017-08-26T13:03:16.120Z,37.16
2017-08-26T13:04:16.135Z,36.58
2017-08-26T13:05:16.124Z,35.43
2017-08-26T13:06:16.125Z,36.89
2017-08-26T13:07:16.226Z,33.59
2017-08-26T13:08:16.128Z,34.67
2017-08-26T13:09:16.130Z,32.71
2017-08-26T13:10:16.137Z,34.27
2017-08-26T13:11:16.134Z,35.82
2017-08-26T13:12:16.133Z,35.33
2017-08-26T13:13:16.238Z,36.89
2017-08-26T13:14:16.138Z,34.46
2017-08-26T13:15:16.147Z,33.11
2017-08-26T13:16:16.140Z,34.54
2017-08-26T13:17:16.143Z,34.35
2017-08-26T13:18:16.145Z,35.51
2017-08-26T13:19:16.247Z,36.87
2017-08-26T13:20:16.147Z,35.53
2017-08-26T13:21:16.150Z,37.76
2017-08-26T13:22:16.152Z,34.17
2017-08-26T13:23:16.153Z,35.64
2017-08-26T13:24:16.153Z,35.05
2017-08-26T13:25:16.258Z,36.42
2017-08-26T13:26:16.159Z,34.48
2017-08-26T13:27:16.167Z,34.38
2017-08-26T13:28:16.161Z,34.97
2017-08-26T13:29:16.165Z,33.33
2017-08-26T13:30:16.166Z,34.40
2017-08-26T13:31:16.268Z,32.54
2017-08-26T13:32:16.170Z,34.67
2017-08-26T13:33:16.173Z,33.22
2017-08-26T13:34:16.175Z,32.65
2017-08-26T13:35:16.176Z,32.55
2017-08-26T13:36:16.177Z,31.19
2017-08-26T13:37:16.281Z,32.07
2017-08-26T13:38:16.183Z,34.98
2017-08-26T13:39:16.187Z,32.26
2017-08-26T13:40:16.186Z,33.06
2017-08-26T13:41:16.189Z,31.70
2017-08-26T13:42:16.190Z,32.47
2017-08-26T13:43:16.293Z,31.29
2017-08-26T13:44:16.194Z,31.79
2017-08-26T13:45:16.197Z,32.76
2017-08-26T13:46:16.199Z,32.76
2017-08-26T13:47:16.202Z,32.67
2017-08-26T13:48:16.204Z,31.79
2017-08-26T13:49:16.306Z,31.70
2017-08-26T13:50:16.209Z,29.75
2017-08-26T13:51:16.212Z,29.47
2017-08-26T13:52:16.214Z,30.05
2017-08-26T13:53:16.218Z,31.03
2017-08-26T13:54:16.219Z,31.51
2017-08-26T13:55:16.322Z,31.61
2017-08-26T13:56:16.224Z,30.93
2017-08-26T13:57:16.226Z,31.71
2017-08-26T13:58:16.228Z,31.71
2017-08-26T13:59:16.232Z,33.07
2017-08-26T14:00:16.234Z,31.51
2017-08-26T14:01:16.337Z,31.22
2017-08-26T14:02:16.239Z,30.64
2017-08-26T14:03:16.241Z,29.38
2017-08-26T14:04:16.244Z,29.96
2017-08-26T14:05:16.248Z,29.94
2017-08-26T14:06:16.250Z,29.46
2017-08-26T14:07:16.353Z,29.26
2017-08-26T14:08:16.256Z,29.55
2017-08-26T14:09:16.260Z,29.94
2017-08-26T14:10:16.261Z,30.72
2017-08-26T14:11:16.264Z,30.52
2017-08-26T14:12:16.267Z,30.51
2017-08-26T14:13:16.518Z,31.77
2017-08-26T14:14:16.272Z,32.07
2017-08-26T14:15:16.274Z,32.07
2017-08-26T14:16:16.275Z,31.87
2017-08-26T14:17:16.279Z,32.55
2017-08-26T14:18:16.280Z,32.84
2017-08-26T14:19:16.384Z,32.45
2017-08-26T14:20:16.284Z,32.26
2017-08-26T14:21:16.287Z,33.91
2017-08-26T14:22:16.292Z,33.43
2017-08-26T14:23:16.293Z,34.40
2017-08-26T14:24:16.294Z,33.53
2017-08-26T14:25:16.398Z,33.33
2017-08-26T14:26:16.301Z,30.40
2017-08-26T14:27:16.303Z,31.27
2017-08-26T14:28:16.306Z,32.92
2017-08-26T14:29:16.308Z,34.95
2017-08-26T14:30:16.310Z,35.92
2017-08-26T14:31:16.412Z,33.98
2017-08-26T14:32:16.315Z,33.01
2017-08-26T14:33:16.316Z,32.62
2017-08-26T14:34:16.319Z,33.39
2017-08-26T14:35:16.320Z,33.01
2017-08-26T14:36:16.323Z,33.11
2017-08-26T14:37:16.425Z,33.29
2017-08-26T14:38:16.328Z,33.01
2017-08-26T14:39:16.329Z,33.01
2017-08-26T14:40:16.331Z,33.20
2017-08-26T14:41:16.332Z,32.91
2017-08-26T14:42:16.334Z,33.28
2017-08-26T14:43:16.437Z,33.88
2017-08-26T14:44:16.338Z,33.20
2017-08-26T14:45:16.340Z,34.56
2017-08-26T14:46:16.343Z,33.20
2017-08-26T14:47:16.344Z,32.81
2017-08-26T14:48:16.346Z,33.20
2017-08-26T14:49:16.448Z,33.69
2017-08-26T14:50:16.350Z,33.88
2017-08-26T14:51:16.353Z,34.46
2017-08-26T14:52:16.354Z,34.85
2017-08-26T14:53:16.356Z,33.76
2017-08-26T14:54:16.357Z,35.22
2017-08-26T14:55:16.662Z,35.32
2017-08-26T14:56:16.364Z,35.71
2017-08-26T14:57:16.363Z,35.51
2017-08-26T14:58:16.366Z,34.54
2017-08-26T14:59:16.368Z,34.35
2017-08-26T15:00:16.369Z,35.03
2017-08-26T15:01:16.472Z,35.41
2017-08-26T15:02:16.374Z,35.32
2017-08-26T15:03:16.376Z,34.54
2017-08-26T15:04:16.377Z,34.35
2017-08-26T15:05:16.379Z,34.44
2017-08-26T15:06:16.381Z,33.96
2017-08-26T15:07:16.484Z,34.93
2017-08-26T15:08:16.385Z,35.32
2017-08-26T15:09:16.387Z,34.53
2017-08-26T15:10:16.388Z,34.33
2017-08-26T15:11:16.393Z,35.01
2017-08-26T15:12:16.391Z,35.49
2017-08-26T15:13:16.494Z,35.98
2017-08-26T15:14:16.396Z,36.27
2017-08-26T15:15:16.397Z,35.01
2017-08-26T15:16:16.401Z,35.09
2017-08-26T15:17:16.400Z,34.89
2017-08-26T15:18:16.402Z,34.61
2017-08-26T15:19:16.504Z,35.09
2017-08-26T15:20:16.405Z,35.96
2017-08-26T15:21:16.406Z,35.77
2017-08-26T15:22:16.514Z,36.14
2017-08-26T15:23:16.409Z,36.33
2017-08-26T15:24:16.410Z,36.24
2017-08-26T15:25:16.513Z,36.62
2017-08-26T15:26:16.414Z,37.11
2017-08-26T15:27:16.414Z,37.59
2017-08-26T15:28:16.414Z,38.07
2017-08-26T15:29:16.417Z,38.27
2017-08-26T15:30:16.419Z,38.27
2017-08-26T15:31:16.521Z,38.46
2017-08-26T15:32:16.422Z,38.66
2017-08-26T15:33:16.425Z,38.35
2017-08-26T15:34:16.424Z,37.96
2017-08-26T15:35:16.426Z,38.35
2017-08-26T15:36:16.427Z,37.94
2017-08-26T15:37:16.529Z,39.88
2017-08-26T15:38:16.530Z,40.65
2017-08-26T15:39:16.516Z,41.52
2017-08-26T15:40:16.431Z,41.99
2017-08-26T15:41:16.436Z,42.08
2017-08-26T15:42:16.440Z,42.76
2017-08-26T15:43:16.435Z,41.99
2017-08-26T15:44:16.535Z,41.41
2017-08-26T15:45:16.437Z,41.09
2017-08-26T15:46:16.438Z,41.29
2017-08-26T15:47:16.440Z,41.48
2017-08-26T15:48:16.437Z,42.25
2017-08-26T15:49:16.741Z,43.41
2017-08-26T15:50:16.542Z,43.71
2017-08-26T15:51:16.442Z,43.13
2017-08-26T15:52:16.444Z,43.13
2017-08-26T15:53:16.443Z,43.03
2017-08-26T15:54:16.443Z,42.72
2017-08-26T15:55:16.446Z,42.24
2017-08-26T15:56:16.549Z,42.14
2017-08-26T15:57:16.445Z,41.36
2017-08-26T15:58:16.446Z,41.25
2017-08-26T15:59:16.447Z,41.35
2017-08-26T16:00:16.446Z,41.93
2017-08-26T16:01:16.448Z,42.99
2017-08-26T16:02:16.548Z,42.87
2017-08-26T16:03:16.448Z,43.37
2017-08-26T16:04:16.447Z,43.64
2017-08-26T16:05:16.448Z,42.39
2017-08-26T16:06:16.449Z,41.13
2017-08-26T16:07:16.447Z,36.57
2017-08-26T16:08:16.551Z,34.14
2017-08-26T16:09:16.446Z,34.22
2017-08-26T16:10:16.447Z,34.01
2017-08-26T16:11:16.447Z,34.30
2017-08-26T16:12:16.445Z,36.71
2017-08-26T16:13:16.445Z,37.19
2017-08-26T16:14:16.543Z,38.24
2017-08-26T16:15:16.442Z,40.07
2017-08-26T16:16:16.440Z,42.07
2017-08-26T16:17:16.438Z,42.46
2017-08-26T16:18:16.437Z,44.07
2017-08-26T16:19:16.435Z,47.05
2017-08-26T16:20:16.535Z,45.32
2017-08-26T16:21:16.434Z,51.76
2017-08-26T16:22:16.429Z,55.59
2017-08-26T16:23:16.429Z,55.78
2017-08-26T16:24:16.428Z,48.83
2017-08-26T16:25:16.442Z,54.41
2017-08-26T16:26:16.523Z,57.20
2017-08-26T16:27:16.422Z,57.84
2017-08-26T16:28:16.418Z,58.70
2017-08-26T16:29:16.416Z,60.53
2017-08-26T16:30:16.414Z,60.91
2017-08-26T16:31:16.413Z,61.75
2017-08-26T16:32:16.508Z,62.71
2017-08-26T16:33:16.407Z,63.19
2017-08-26T16:34:16.403Z,64.53
2017-08-26T16:35:16.418Z,64.89
2017-08-26T16:36:16.397Z,66.26
2017-08-26T16:37:16.394Z,66.71
2017-08-26T16:38:16.641Z,66.13
2017-08-26T16:39:16.389Z,65.36
2017-08-26T16:40:16.385Z,65.75
2017-08-26T16:41:16.382Z,66.03
2017-08-26T16:42:16.379Z,66.42
2017-08-26T16:43:16.376Z,66.67
2017-08-26T16:44:16.472Z,67.06
2017-08-26T16:45:16.368Z,67.25
2017-08-26T16:46:16.366Z,68.12
2017-08-26T16:47:16.362Z,68.98
2017-08-26T16:48:16.358Z,68.79
2017-08-26T16:49:16.356Z,68.50
2017-08-26T16:50:16.453Z,69.26
2017-08-26T16:51:16.349Z,68.88
2017-08-26T16:52:16.346Z,69.26
2017-08-26T16:53:16.341Z,67.83
2017-08-26T16:54:16.337Z,68.02
2017-08-26T16:55:16.336Z,68.95
2017-08-26T16:56:16.579Z,70.00
2017-08-26T16:57:16.326Z,70.19
2017-08-26T16:58:16.322Z,70.48
2017-08-26T16:59:16.318Z,70.38
2017-08-26T17:00:16.315Z,68.18
2017-08-26T17:01:16.309Z,68.08
2017-08-26T17:02:16.407Z,67.50
2017-08-26T17:03:16.302Z,67.12
2017-08-26T17:04:16.298Z,66.80
2017-08-26T17:05:16.293Z,66.22
2017-08-26T17:06:16.290Z,67.41
2017-08-26T17:07:16.286Z,67.09
2017-08-26T17:08:16.381Z,67.18
2017-08-26T17:09:16.528Z,68.91
2017-08-26T17:10:16.273Z,69.20
2017-08-26T17:11:16.268Z,69.10
2017-08-26T17:12:16.264Z,69.77
2017-08-26T17:13:16.261Z,69.87
2017-08-26T17:14:16.254Z,70.25
2017-08-26T17:15:16.351Z,70.54
2017-08-26T17:16:16.246Z,70.35
2017-08-26T17:17:16.241Z,70.31
2017-08-26T17:18:16.236Z,71.17
2017-08-26T17:19:16.232Z,71.66
2017-08-26T17:20:16.231Z,71.56
2017-08-26T17:21:16.322Z,72.27
2017-08-26T17:22:16.218Z,71.59
2017-08-26T17:23:16.212Z,71.02
2017-08-26T17:24:16.207Z,70.25
2017-08-26T17:25:16.203Z,70.35
2017-08-26T17:26:16.199Z,70.44
2017-08-26T17:27:16.294Z,70.44
2017-08-26T17:28:16.188Z,69.77
2017-08-26T17:29:16.185Z,69.68
2017-08-26T17:30:16.178Z,69.10
2017-08-26T17:31:16.191Z,69.48
2017-08-26T17:32:16.170Z,69.77
2017-08-26T17:33:16.266Z,69.77
2017-08-26T17:34:16.160Z,69.77
2017-08-26T17:35:16.156Z,69.10